createdAt,value
2018-04-22T00:01:27.063Z,98.00
2018-04-22T00:04:00.707Z,97.90
2018-04-22T00:06:35.356Z,98.10
2018-04-22T00:09:09.000Z,98.10
2018-04-22T00:11:43.446Z,98.10
2018-04-22T00:14:17.087Z,98.10
2018-04-22T00:16:50.774Z,98.10
2018-04-22T00:19:24.409Z,98.00
2018-04-22T00:21:58.070Z,98.10
2018-04-22T00:24:31.737Z,98.20
2018-04-22T00:27:07.145Z,98.30
2018-04-22T00:29:40.772Z,97.70
2018-04-22T00:32:15.201Z,97.50
2018-04-22T00:34:48.825Z,97.40
2018-04-22T00:37:22.491Z,97.20
2018-04-22T00:39:56.557Z,97.00
2018-04-22T00:42:30.236Z,97.00
2018-04-22T00:45:03.537Z,96.90
2018-04-22T00:47:37.213Z,96.90
2018-04-22T00:50:11.800Z,96.80
2018-04-22T00:52:45.468Z,96.80
2018-04-22T00:55:19.117Z,96.90
2018-04-22T00:57:53.565Z,97.20
2018-04-22T01:00:27.192Z,97.20
2018-04-22T01:03:00.863Z,97.30
2018-04-22T01:05:35.465Z,97.40
2018-04-22T01:08:10.885Z,97.80
2018-04-22T01:10:44.513Z,97.80
2018-04-22T01:13:18.947Z,98.10
2018-04-22T01:15:53.551Z,98.10
2018-04-22T01:18:27.983Z,98.30
2018-04-22T01:21:01.612Z,98.30
2018-04-22T01:23:35.278Z,98.30
2018-04-22T01:26:08.950Z,98.30
2018-04-22T01:28:42.585Z,98.50
2018-04-22T01:31:16.293Z,98.60
2018-04-22T01:33:49.919Z,98.80
2018-04-22T01:36:23.605Z,98.80
2018-04-22T01:39:09.261Z,99.00
2018-04-22T01:41:43.691Z,99.20
2018-04-22T01:44:17.477Z,99.20
2018-04-22T01:46:51.552Z,99.20
2018-04-22T01:49:25.219Z,99.30
2018-04-22T01:51:59.048Z,99.50
2018-04-22T01:54:32.681Z,99.60
2018-04-22T01:57:07.314Z,99.70
2018-04-22T01:59:41.710Z,99.90
2018-04-22T02:02:15.192Z,99.80
2018-04-22T02:04:48.821Z,99.90
2018-04-22T02:07:22.489Z,99.90
2018-04-22T02:09:56.124Z,99.90
2018-04-22T02:12:29.805Z,99.90
2018-04-22T02:15:03.218Z,99.90
2018-04-22T02:17:36.894Z,99.90
2018-04-22T02:20:10.532Z,99.90
2018-04-22T02:22:44.968Z,99.90
2018-04-22T02:25:18.630Z,99.90
2018-04-22T02:27:52.304Z,99.90
2018-04-22T02:30:26.897Z,99.90
2018-04-22T02:33:00.566Z,99.90
2018-04-22T02:35:35.179Z,99.90
2018-04-22T02:38:09.045Z,99.90
2018-04-22T02:40:42.680Z,99.90
2018-04-22T02:43:17.352Z,99.90
2018-04-22T02:45:50.980Z,99.90
2018-04-22T02:48:25.625Z,99.90
2018-04-22T02:51:00.272Z,99.90
2018-04-22T02:53:34.710Z,99.90
2018-04-22T02:56:08.340Z,99.90
2018-04-22T02:58:42.008Z,99.90
2018-04-22T03:01:15.646Z,99.90
2018-04-22T03:03:49.316Z,99.90
2018-04-22T03:06:22.945Z,99.90
2018-04-22T03:08:56.625Z,99.90
2018-04-22T03:11:30.264Z,99.90
2018-04-22T03:14:03.937Z,99.90
2018-04-22T03:16:37.933Z,99.90
2018-04-22T03:19:12.568Z,99.90
2018-04-22T03:21:46.204Z,99.90
2018-04-22T03:24:19.881Z,99.90
2018-04-22T03:26:53.509Z,99.90
2018-04-22T03:29:27.185Z,99.90
2018-04-22T03:32:00.845Z,99.90
2018-04-22T03:34:34.522Z,99.90
2018-04-22T03:37:08.164Z,99.90
2018-04-22T03:39:41.827Z,99.90
2018-04-22T03:42:17.210Z,99.90
2018-04-22T03:44:50.890Z,99.90
2018-04-22T03:47:24.523Z,99.90
2018-04-22T03:49:58.195Z,99.90
2018-04-22T03:52:32.792Z,99.90
2018-04-22T03:55:07.445Z,99.90
2018-04-22T03:57:40.741Z,99.90
2018-04-22T04:00:14.399Z,99.90
2018-04-22T04:02:48.098Z,99.90
2018-04-22T04:05:21.778Z,99.90
2018-04-22T04:07:55.400Z,99.90
2018-04-22T04:10:30.039Z,99.90
2018-04-22T04:13:03.701Z,99.90
2018-04-22T04:15:37.373Z,99.90
2018-04-22T04:21:41.655Z,99.90
2018-04-22T04:27:45.277Z,99.90
2018-04-22T04:30:18.906Z,99.90
2018-04-22T04:32:53.332Z,99.90
2018-04-22T04:35:27.724Z,99.90
2018-04-22T04:38:01.388Z,99.90
2018-04-22T04:40:36.777Z,99.90
2018-04-22T04:43:11.729Z,99.90
2018-04-22T04:45:46.126Z,99.90
2018-04-22T04:48:19.784Z,99.90
2018-04-22T04:50:53.412Z,99.90
2018-04-22T04:53:27.159Z,99.90
2018-04-22T04:56:00.797Z,99.90
2018-04-22T04:58:34.460Z,99.90
2018-04-22T05:01:08.095Z,99.90
2018-04-22T05:03:41.765Z,99.90
2018-04-22T05:06:15.394Z,99.90
2018-04-22T05:08:49.059Z,99.90
2018-04-22T05:11:23.689Z,99.90
2018-04-22T05:13:57.354Z,99.90
2018-04-22T05:16:30.972Z,99.80
2018-04-22T05:19:06.051Z,99.10
2018-04-22T05:21:40.649Z,99.10
2018-04-22T05:24:15.362Z,98.70
2018-04-22T05:26:49.182Z,98.20
2018-04-22T05:29:22.856Z,97.80
2018-04-22T05:31:57.253Z,96.80
2018-04-22T05:34:30.916Z,96.80
2018-04-22T05:37:04.543Z,96.50
2018-04-22T05:39:39.211Z,96.20
2018-04-22T05:42:13.609Z,95.40
2018-04-22T05:44:47.276Z,95.40
2018-04-22T05:47:20.914Z,94.90
2018-04-22T05:49:55.351Z,94.30
2018-04-22T05:52:29.754Z,93.80
2018-04-22T05:55:03.888Z,93.50
2018-04-22T05:57:38.495Z,93.30
2018-04-22T06:00:13.917Z,92.00
2018-04-22T06:02:47.553Z,92.00
2018-04-22T06:05:21.227Z,90.90
2018-04-22T06:07:55.814Z,84.10
2018-04-22T06:10:30.434Z,70.30
2018-04-22T06:13:04.066Z,63.50
2018-04-22T06:15:38.764Z,58.10
2018-04-22T06:18:13.723Z,50.20
2018-04-22T06:20:47.955Z,50.10
2018-04-22T06:23:22.143Z,47.80
2018-04-22T06:25:56.368Z,45.70
2018-04-22T06:28:30.598Z,43.80
2018-04-22T06:31:04.834Z,42.30
2018-04-22T06:33:39.816Z,38.80
2018-04-22T06:36:14.992Z,38.00
2018-04-22T06:38:49.202Z,37.50
2018-04-22T06:41:25.365Z,37.60
2018-04-22T06:43:59.548Z,36.60
2018-04-22T06:46:33.790Z,35.80
2018-04-22T06:49:07.990Z,34.60
2018-04-22T06:51:42.229Z,34.40
2018-04-22T06:54:16.421Z,33.90
2018-04-22T06:56:51.596Z,33.10
2018-04-22T06:59:25.787Z,32.90
2018-04-22T07:02:00.048Z,32.10
2018-04-22T07:04:34.245Z,32.20
2018-04-22T07:07:09.241Z,34.90
2018-04-22T07:09:43.431Z,34.10
2018-04-22T07:12:17.670Z,33.20
2018-04-22T07:14:51.865Z,33.80
2018-04-22T07:17:26.136Z,33.30
2018-04-22T07:20:01.092Z,32.40
2018-04-22T07:22:35.342Z,32.30
2018-04-22T07:25:09.520Z,32.10
2018-04-22T07:27:44.493Z,33.50
2018-04-22T07:30:18.665Z,33.30
2018-04-22T07:32:52.901Z,33.40
2018-04-22T07:35:28.065Z,36.90
2018-04-22T07:38:03.268Z,37.60
2018-04-22T07:40:37.499Z,37.20
2018-04-22T07:43:11.896Z,36.90
2018-04-22T07:45:46.084Z,35.90
2018-04-22T07:48:21.087Z,37.70
2018-04-22T07:50:55.279Z,37.80
2018-04-22T07:53:29.542Z,37.80
2018-04-22T07:56:03.909Z,39.00
2018-04-22T07:58:38.142Z,39.00
2018-04-22T08:01:12.369Z,39.90
2018-04-22T08:03:47.593Z,40.90
2018-04-22T08:06:21.788Z,39.90
2018-04-22T08:08:56.980Z,37.80
2018-04-22T08:11:31.177Z,37.10
2018-04-22T08:14:06.169Z,37.80
2018-04-22T08:16:41.335Z,37.80
2018-04-22T08:22:04.835Z,38.10
2018-04-22T08:24:39.778Z,38.10
2018-04-22T08:27:20.859Z,38.20
2018-04-22T08:29:58.846Z,38.30
2018-04-22T08:32:40.900Z,37.70
2018-04-22T08:35:26.639Z,37.80
2018-04-22T08:38:06.493Z,37.60
2018-04-22T08:40:48.929Z,37.60
2018-04-22T08:43:26.724Z,37.00
2018-04-22T08:46:07.074Z,37.30
2018-04-22T08:48:47.615Z,35.20
2018-04-22T08:51:34.848Z,35.20
2018-04-22T08:54:13.096Z,36.00
2018-04-22T08:57:03.459Z,37.10
2018-04-22T08:59:58.100Z,34.20
2018-04-22T09:02:36.591Z,33.50
2018-04-22T09:05:12.463Z,33.50
2018-04-22T09:07:55.963Z,32.70
2018-04-22T09:10:36.077Z,32.70
2018-04-22T09:13:17.572Z,33.60
2018-04-22T09:18:42.972Z,33.90
2018-04-22T09:21:23.351Z,33.70
2018-04-22T09:24:05.757Z,33.50
2018-04-22T09:29:33.802Z,32.10
2018-04-22T09:32:10.133Z,33.50
2018-04-22T09:34:45.350Z,33.40
2018-04-22T09:37:19.565Z,32.90
2018-04-22T09:39:54.801Z,32.70
2018-04-22T09:42:29.020Z,32.80
2018-04-22T09:45:03.282Z,33.50
2018-04-22T09:47:40.580Z,31.70
2018-04-22T09:50:23.383Z,31.70
2018-04-22T09:52:58.594Z,30.60
2018-04-22T09:55:42.595Z,30.50
2018-04-22T10:01:22.537Z,30.60
2018-04-22T10:03:59.964Z,29.70
2018-04-22T10:06:40.347Z,30.70
2018-04-22T10:09:20.036Z,31.30
2018-04-22T10:12:04.055Z,31.20
2018-04-22T10:14:45.455Z,30.00
2018-04-22T10:17:23.557Z,31.50
2018-04-22T10:20:05.197Z,30.90
2018-04-22T10:22:44.414Z,32.60
2018-04-22T10:28:07.354Z,31.80
2018-04-22T10:30:45.467Z,31.60
2018-04-22T10:33:19.736Z,32.90
2018-04-22T10:35:53.970Z,34.50
2018-04-22T10:38:28.150Z,33.00
2018-04-22T10:41:02.390Z,33.00
2018-04-22T10:43:36.581Z,33.70
2018-04-22T10:46:10.793Z,32.60
2018-04-22T10:48:44.980Z,32.90
2018-04-22T10:51:20.153Z,35.70
2018-04-22T10:53:54.330Z,35.90
2018-04-22T10:56:29.537Z,36.70
2018-04-22T10:59:03.718Z,37.90
2018-04-22T11:01:38.893Z,38.30
2018-04-22T11:04:13.845Z,39.00
2018-04-22T11:06:48.071Z,39.00
2018-04-22T11:09:22.264Z,39.20
2018-04-22T11:11:57.241Z,39.80
2018-04-22T11:14:31.435Z,39.80
2018-04-22T11:17:06.703Z,39.90
2018-04-22T11:19:41.108Z,40.10
2018-04-22T11:22:16.303Z,39.90
2018-04-22T11:24:51.204Z,40.70
2018-04-22T11:27:26.466Z,40.10
2018-04-22T11:30:01.777Z,40.80
2018-04-22T11:32:36.994Z,40.40
2018-04-22T11:35:11.168Z,41.20
2018-04-22T11:37:45.406Z,42.10
2018-04-22T11:40:19.588Z,41.60
2018-04-22T11:42:54.786Z,42.10
2018-04-22T11:45:28.965Z,41.60
2018-04-22T11:48:04.175Z,41.10
2018-04-22T11:50:40.674Z,41.60
2018-04-22T11:53:15.897Z,41.50
2018-04-22T11:55:50.280Z,41.70
2018-04-22T11:58:25.283Z,41.80
2018-04-22T12:01:00.440Z,41.80
2018-04-22T12:03:34.679Z,42.70
2018-04-22T12:06:09.635Z,43.40
2018-04-22T12:08:44.821Z,43.60
2018-04-22T12:11:19.009Z,44.10
2018-04-22T12:13:53.241Z,44.60
2018-04-22T12:16:27.432Z,44.40
2018-04-22T12:19:02.666Z,44.00
2018-04-22T12:21:37.836Z,45.40
2018-04-22T12:24:12.074Z,44.20
2018-04-22T12:26:46.265Z,43.40
2018-04-22T12:29:20.508Z,43.60
2018-04-22T12:31:54.756Z,43.70
2018-04-22T12:34:30.091Z,44.20
2018-04-22T12:37:04.269Z,45.20
2018-04-22T12:39:40.280Z,44.60
2018-04-22T12:42:14.490Z,45.30
2018-04-22T12:44:48.778Z,44.20
2018-04-22T12:47:22.963Z,43.90
2018-04-22T12:49:57.985Z,44.00
2018-04-22T12:52:32.948Z,44.80
2018-04-22T12:55:07.203Z,44.70
2018-04-22T12:57:41.403Z,43.10
2018-04-22T13:00:15.638Z,43.90
2018-04-22T13:02:49.864Z,44.40
2018-04-22T13:05:24.108Z,45.60
2018-04-22T13:07:58.303Z,45.50
2018-04-22T13:10:33.298Z,45.60
2018-04-22T13:13:07.500Z,45.60
2018-04-22T13:15:41.737Z,44.90
2018-04-22T13:18:15.931Z,43.50
2018-04-22T13:20:51.148Z,44.50
2018-04-22T13:23:25.341Z,44.60
2018-04-22T13:25:59.571Z,44.80
2018-04-22T13:28:33.792Z,45.40
2018-04-22T13:31:08.996Z,44.80
2018-04-22T13:33:43.961Z,46.50
2018-04-22T13:36:18.194Z,46.50
2018-04-22T13:38:52.460Z,47.20
2018-04-22T13:41:27.448Z,47.10
2018-04-22T13:44:01.638Z,47.00
2018-04-22T13:46:35.864Z,46.50
2018-04-22T13:49:10.087Z,47.00
2018-04-22T13:51:44.298Z,47.60
2018-04-22T13:54:18.524Z,46.70
2018-04-22T13:56:52.758Z,45.80
2018-04-22T13:59:27.965Z,45.70
2018-04-22T14:02:02.160Z,46.20
2018-04-22T14:04:36.405Z,46.80
2018-04-22T14:07:11.573Z,46.80
2018-04-22T14:09:46.568Z,46.90
2018-04-22T14:12:20.820Z,46.80
2018-04-22T14:14:55.819Z,46.60
2018-04-22T14:17:30.017Z,46.50
2018-04-22T14:20:04.704Z,45.40
2018-04-22T14:22:38.897Z,45.00
2018-04-22T14:25:13.959Z,45.00
2018-04-22T14:27:48.305Z,45.00
2018-04-22T14:30:23.499Z,45.60
2018-04-22T14:32:57.720Z,45.50
2018-04-22T14:35:31.952Z,45.00
2018-04-22T14:38:07.123Z,46.00
2018-04-22T14:40:41.553Z,45.50
2018-04-22T14:43:15.784Z,46.60
2018-04-22T14:46:01.945Z,46.70
2018-04-22T14:48:47.316Z,46.60
2018-04-22T14:51:21.562Z,46.70
2018-04-22T14:53:56.528Z,47.50
2018-04-22T14:56:31.552Z,47.50
2018-04-22T14:59:05.748Z,47.50
2018-04-22T15:01:40.747Z,47.30
2018-04-22T15:04:14.950Z,47.30
2018-04-22T15:06:50.153Z,48.20
2018-04-22T15:09:24.348Z,47.50
2018-04-22T15:11:59.131Z,47.20
2018-04-22T15:14:34.306Z,47.10
2018-04-22T15:17:09.368Z,47.50
2018-04-22T15:19:43.568Z,47.40
2018-04-22T15:22:18.786Z,47.40
2018-04-22T15:24:53.750Z,48.20
2018-04-22T15:27:27.981Z,48.10
2018-04-22T15:30:03.148Z,48.50
2018-04-22T15:32:38.367Z,48.40
2018-04-22T15:35:12.564Z,48.90
2018-04-22T15:37:46.811Z,48.40
2018-04-22T15:40:21.007Z,49.30
2018-04-22T15:42:55.255Z,49.50
2018-04-22T15:45:29.461Z,48.60
2018-04-22T15:48:03.942Z,47.40
2018-04-22T15:50:38.180Z,47.90
2018-04-22T15:53:13.328Z,48.60
2018-04-22T15:55:47.560Z,48.90
2018-04-22T15:58:22.533Z,47.60
2018-04-22T16:00:57.729Z,47.60
2018-04-22T16:03:32.511Z,44.30
2018-04-22T16:06:06.732Z,44.30
2018-04-22T16:08:41.520Z,43.60
2018-04-22T16:11:15.783Z,43.70
2018-04-22T16:13:49.970Z,43.50
2018-04-22T16:16:24.211Z,44.90
2018-04-22T16:18:59.529Z,43.60
2018-04-22T16:21:35.663Z,44.30
2018-04-22T16:24:09.932Z,45.10
2018-04-22T16:26:44.166Z,45.40
2018-04-22T16:29:20.083Z,46.20
2018-04-22T16:31:54.316Z,46.20
2018-04-22T16:34:31.453Z,46.10
2018-04-22T16:37:06.670Z,46.10
2018-04-22T16:39:40.904Z,45.90
2018-04-22T16:42:15.097Z,45.80
2018-04-22T16:44:51.061Z,45.60
2018-04-22T16:47:25.256Z,45.70
2018-04-22T16:50:01.202Z,46.30
2018-04-22T16:52:37.141Z,44.60
2018-04-22T16:55:11.375Z,44.50
2018-04-22T16:57:47.297Z,44.50
2018-04-22T17:00:22.483Z,44.50
2018-04-22T17:02:56.711Z,45.50
2018-04-22T17:05:32.121Z,44.80
2018-04-22T17:08:07.085Z,45.40
2018-04-22T17:10:41.317Z,45.40
2018-04-22T17:13:16.479Z,45.60
2018-04-22T17:15:50.713Z,46.10
2018-04-22T17:18:25.678Z,46.80
2018-04-22T17:21:00.915Z,46.20
2018-04-22T17:23:35.105Z,46.70
2018-04-22T17:26:10.103Z,45.50
2018-04-22T17:28:44.287Z,45.50
2018-04-22T17:31:18.303Z,45.90
2018-04-22T17:33:52.505Z,46.40
2018-04-22T17:36:26.750Z,45.60
2018-04-22T17:39:03.787Z,45.70
2018-04-22T17:41:46.347Z,46.90
2018-04-22T17:53:51.733Z,47.80
2018-04-22T17:59:33.286Z,48.50
2018-04-22T18:02:08.774Z,48.70
2018-04-22T18:04:43.203Z,49.20
2018-04-22T18:07:17.465Z,49.50
2018-04-22T18:09:52.430Z,50.30
2018-04-22T18:12:26.708Z,49.70
2018-04-22T18:15:01.689Z,50.00
2018-04-22T18:17:35.765Z,50.10
2018-04-22T18:20:09.985Z,50.20
2018-04-22T18:22:45.233Z,50.50
2018-04-22T18:25:19.425Z,50.40
2018-04-22T18:27:53.319Z,51.00
2018-04-22T18:30:29.882Z,53.00
2018-04-22T18:33:04.132Z,53.00
2018-04-22T18:35:38.326Z,55.90
2018-04-22T18:38:12.024Z,58.00
2018-04-22T18:40:45.679Z,59.40
2018-04-22T18:43:19.140Z,59.10
2018-04-22T18:45:52.780Z,59.20
2018-04-22T18:48:27.464Z,59.40
2018-04-22T18:51:01.296Z,59.70
2018-04-22T18:53:35.733Z,60.30
2018-04-22T18:56:10.341Z,60.40
2018-04-22T18:58:44.781Z,61.60
2018-04-22T19:01:18.403Z,61.40
2018-04-22T19:03:52.078Z,61.90
2018-04-22T19:06:25.712Z,61.90
2018-04-22T19:08:59.618Z,62.00
2018-04-22T19:11:33.266Z,62.10
2018-04-22T19:14:07.703Z,62.50
2018-04-22T19:16:41.330Z,62.40
2018-04-22T19:19:14.993Z,62.90
2018-04-22T19:21:49.581Z,63.10
2018-04-22T19:24:24.203Z,62.70
2018-04-22T19:26:57.831Z,62.70
2018-04-22T19:29:32.263Z,63.40
2018-04-22T19:32:05.893Z,63.20
2018-04-22T19:34:40.539Z,63.10
2018-04-22T19:37:14.173Z,63.40
2018-04-22T19:39:48.741Z,64.20
2018-04-22T19:42:22.369Z,64.20
2018-04-22T19:44:56.041Z,64.30
2018-04-22T19:47:29.669Z,64.30
2018-04-22T19:50:03.357Z,64.90
2018-04-22T19:52:37.656Z,65.10
2018-04-22T19:55:11.330Z,65.10
2018-04-22T19:57:44.964Z,65.30
2018-04-22T20:00:18.637Z,65.20
2018-04-22T20:02:52.051Z,65.20
2018-04-22T20:05:25.926Z,65.70
2018-04-22T20:07:59.568Z,65.80
2018-04-22T20:16:08.662Z,66.80
2018-04-22T20:18:46.324Z,67.10
2018-04-22T20:21:31.162Z,66.80
2018-04-22T20:24:07.298Z,67.40
2018-04-22T20:26:44.687Z,67.80
2018-04-22T20:29:19.504Z,67.80
2018-04-22T20:31:53.213Z,67.50
2018-04-22T20:34:28.609Z,67.90
2018-04-22T20:37:02.295Z,67.80
2018-04-22T20:39:36.919Z,68.10
2018-04-22T20:42:10.615Z,68.40
2018-04-22T20:44:44.252Z,68.50
2018-04-22T20:47:17.941Z,68.60
2018-04-22T20:49:52.629Z,68.80
2018-04-22T20:52:26.300Z,69.30
2018-04-22T20:55:00.701Z,69.00
2018-04-22T20:57:34.377Z,68.90
2018-04-22T21:00:22.614Z,68.40
2018-04-22T21:05:42.200Z,68.70
2018-04-22T21:08:20.487Z,68.70
2018-04-22T21:10:56.575Z,68.60
2018-04-22T21:13:30.275Z,68.90
2018-04-22T21:16:06.041Z,68.40
2018-04-22T21:18:39.715Z,68.40
2018-04-22T21:21:13.636Z,67.90
2018-04-22T21:23:48.050Z,68.40
2018-04-22T21:26:21.681Z,68.20
2018-04-22T21:28:55.345Z,68.50
2018-04-22T21:31:29.440Z,68.00
2018-04-22T21:34:04.098Z,68.70
2018-04-22T21:36:38.349Z,68.30
2018-04-22T21:39:12.785Z,68.40
2018-04-22T21:41:47.966Z,68.70
2018-04-22T21:44:22.328Z,68.70
2018-04-22T21:46:56.139Z,68.30
2018-04-22T21:49:31.023Z,68.60
2018-04-22T21:52:04.772Z,68.70
2018-04-22T21:54:41.383Z,69.20
2018-04-22T21:57:15.139Z,69.80
2018-04-22T21:59:50.205Z,69.80
2018-04-22T22:02:23.838Z,69.70
2018-04-22T22:04:57.505Z,69.80
2018-04-22T22:07:31.145Z,69.90
2018-04-22T22:10:04.175Z,70.20
2018-04-22T22:12:37.810Z,70.50
2018-04-22T22:15:12.440Z,70.50
2018-04-22T22:17:46.117Z,71.00
2018-04-22T22:20:20.105Z,71.20
2018-04-22T22:22:53.738Z,71.30
2018-04-22T22:25:27.708Z,71.40
2018-04-22T22:28:02.350Z,71.10
2018-04-22T22:30:36.025Z,71.20
2018-04-22T22:33:10.422Z,71.30
2018-04-22T22:35:44.093Z,71.30
2018-04-22T22:38:17.756Z,71.00
2018-04-22T22:40:52.201Z,70.50
2018-04-22T22:43:25.833Z,70.60
2018-04-22T22:45:59.513Z,70.90
2018-04-22T22:48:33.145Z,70.60
2018-04-22T22:51:06.837Z,71.10
2018-04-22T22:53:40.477Z,71.40
2018-04-22T22:56:14.902Z,71.40
2018-04-22T22:58:48.528Z,71.40
2018-04-22T23:01:22.184Z,71.50
2018-04-22T23:03:56.581Z,71.50
2018-04-22T23:06:30.261Z,71.50
2018-04-22T23:09:03.353Z,71.90
2018-04-22T23:11:37.026Z,72.40
2018-04-22T23:14:11.613Z,73.50
2018-04-22T23:16:46.056Z,74.40
2018-04-22T23:19:19.681Z,74.20
2018-04-22T23:21:53.361Z,74.00
2018-04-22T23:24:26.995Z,74.20
2018-04-22T23:27:00.668Z,74.70
2018-04-22T23:29:34.304Z,75.10
2018-04-22T23:32:07.975Z,75.60
2018-04-22T23:34:41.619Z,76.10
2018-04-22T23:37:16.306Z,76.70
2018-04-22T23:39:49.945Z,77.00
2018-04-22T23:42:23.653Z,77.10
2018-04-22T23:44:57.318Z,77.70
2018-04-22T23:47:32.013Z,77.30
2018-04-22T23:50:05.666Z,78.00
2018-04-22T23:52:39.349Z,78.50
2018-04-22T23:55:13.958Z,78.40
2018-04-22T23:57:48.597Z,80.10
